Terminal Aerodrome Forecast
Issued by NWS Houston/Galveston, TX

Home | Current Version | Previous Version | Text Only | Print | Product List | Glossary On
Versions: 1 2 3 4 5 6 7 8 9 10 11 12 13 14 15 16 17 18 19
000
FTUS44 KHGX 171130
TAFGLS
TAF
KGLS 171130Z 1712/1812 35009KT P6SM SCT006 OVC040
      TEMPO 1712/1714 5SM BR BKN007 OVC015
     FM171800 08008KT P6SM BKN025 BKN250
     FM180500 09008KT 4SM BR BKN015
     FM180900 VRB03KT 3SM -RA BR OVC007=

USA.gov is the U.S. government's official web portal to all federal, state and local government web resources and services.